Time;durP1;ratioP1;P1;durP2;ratioP2;P2;SDS_P1;SDS_P2;PMS_P1;PMS_P2;Temp;Humidity;BMP_temperature;BMP_pressure;BME280_temperature;BME280_humidity;BME280_pressure;Samples;Min_cycle;Max_cycle;Signal;HPM_P1;HPM_P2
2021/11/24 09:37:08;;;;;;;23.27;13.98;;;;;;;;;;13002281;22;20016;-85
2021/11/24 09:42:51;;;;;;;24.50;14.30;;;;;;;;;;12684352;23;20010;-85
2021/11/24 10:45:04;;;;;;;21.80;14.03;;;;;;;;;;12962409;22;20023;-83
2021/11/24 10:50:44;;;;;;;21.63;13.43;;;;;;;;;;12870349;22;20070;-83
2021/11/24 10:55:49;;;;;;;19.20;12.13;;;;;;;;;;12932394;23;20020;-84
2021/11/24 11:00:55;;;;;;;23.50;14.00;;;;;;;;;;12933917;23;20056;-84
2021/11/24 11:06:31;;;;;;;21.75;13.68;;;;;;;;;;12973489;22;20332;-84
2021/11/24 11:11:55;;;;;;;22.63;13.75;;;;;;;;;;12974894;22;20050;-84
2021/11/24 11:16:58;;;;;;;15.05;10.18;;;;;;;;;;12975157;22;20012;-83
2021/11/24 11:22:19;;;;;;;20.75;12.40;;;;;;;;;;12976336;22;20469;-85
2021/11/24 11:27:32;;;;;;;19.48;12.52;;;;;;;;;;12973627;22;20014;-84
2021/11/24 11:32:41;;;;;;;20.02;13.38;;;;;;;;;;12978649;22;20351;-84
2021/11/24 11:37:45;;;;;;;18.98;12.95;;;;;;;;;;12956435;22;20012;-83
2021/11/24 11:43:01;;;;;;;35.40;23.60;;;;;;;;;;12978868;22;20011;-85
2021/11/24 11:48:30;;;;;;;19.92;12.55;;;;;;;;;;12980375;22;20083;-83
2021/11/24 11:54:06;;;;;;;19.88;12.38;;;;;;;;;;12993739;22;20012;-84
2021/11/24 11:59:49;;;;;;;24.25;14.43;;;;;;;;;;12918643;22;20076;-84
2021/11/24 12:10:17;;;;;;;20.98;13.23;;;;;;;;;;13011187;22;20083;-84
2021/11/24 12:15:41;;;;;;;22.35;14.07;;;;;;;;;;12981178;22;20019;-84
2021/11/24 12:20:50;;;;;;;27.25;17.70;;;;;;;;;;12975679;22;20068;-84
2021/11/24 12:25:52;;;;;;;28.50;18.73;;;;;;;;;;12979373;22;20020;-83
2021/11/24 12:31:02;;;;;;;28.10;18.63;;;;;;;;;;12977703;22;20317;-84
2021/11/24 12:36:24;;;;;;;24.98;16.55;;;;;;;;;;13007063;22;20381;-86
2021/11/24 12:41:30;;;;;;;30.80;19.85;;;;;;;;;;12987020;22;20111;-84
2021/11/24 12:47:35;;;;;;;38.03;26.90;;;;;;;;;;13005466;22;20007;-84
2021/11/24 12:53:25;;;;;;;32.55;19.88;;;;;;;;;;13004018;22;20030;-84
2021/11/24 12:58:27;;;;;;;25.75;17.08;;;;;;;;;;13010907;22;20023;-83
2021/11/24 13:03:29;;;;;;;28.42;17.48;;;;;;;;;;12983783;22;20007;-83
2021/11/24 13:08:35;;;;;;;26.75;16.85;;;;;;;;;;12978297;22;20038;-84
2021/11/24 13:13:37;;;;;;;23.88;15.30;;;;;;;;;;12997636;22;19996;-84
2021/11/24 13:24:20;;;;;;;29.70;16.45;;;;;;;;;;13007456;22;20049;-85
2021/11/24 13:29:24;;;;;;;47.55;29.17;;;;;;;;;;12980072;22;20018;-85
2021/11/24 13:34:25;;;;;;;24.75;14.93;;;;;;;;;;12975476;22;20387;-84
2021/11/24 13:39:28;;;;;;;26.83;15.30;;;;;;;;;;12974283;22;20044;-86
2021/11/24 13:44:29;;;;;;;32.78;18.35;;;;;;;;;;12973615;22;20288;-84
2021/11/24 13:49:29;;;;;;;;;;;;;;;;;;12971992;22;20011;-85
2021/11/24 13:54:31;;;;;;;37.67;25.00;;;;;;;;;;12973559;22;19986;-86
2021/11/24 13:59:33;;;;;;;35.88;24.75;;;;;;;;;;12970477;22;20007;-85
2021/11/24 14:04:46;;;;;;;30.90;20.90;;;;;;;;;;12982468;22;20083;-88
2021/11/24 14:09:48;;;;;;;36.17;23.52;;;;;;;;;;12978848;22;20035;-86
2021/11/24 14:14:49;;;;;;;28.67;19.15;;;;;;;;;;12972436;22;20004;-85
2021/11/24 14:19:51;;;;;;;28.75;18.52;;;;;;;;;;12969986;22;20019;-86
2021/11/24 14:24:52;;;;;;;28.73;17.45;;;;;;;;;;12972606;22;20003;-89
2021/11/24 14:29:53;;;;;;;;;;;;;;;;;;12976573;22;20432;-88
2021/11/24 14:34:53;;;;;;;27.10;16.52;;;;;;;;;;12975207;22;20041;-85
2021/11/24 14:39:55;;;;;;;30.35;16.95;;;;;;;;;;12976766;22;20062;-85
2021/11/24 14:44:56;;;;;;;28.60;16.95;;;;;;;;;;12982003;22;20464;-85
2021/11/24 14:49:57;;;;;;;25.15;15.70;;;;;;;;;;13000700;22;20063;-85
2021/11/24 14:54:58;;;;;;;28.95;17.13;;;;;;;;;;13004303;22;19999;-86
2021/11/24 14:59:59;;;;;;;29.38;16.90;;;;;;;;;;13027201;22;20007;-85
2021/11/24 15:05:01;;;;;;;36.10;22.10;;;;;;;;;;13023351;22;19995;-85
2021/11/24 15:10:02;;;;;;;38.22;23.02;;;;;;;;;;13000964;22;20004;-85
2021/11/24 15:15:02;;;;;;;;;;;;;;;;;;13007127;22;20008;-86
2021/11/24 15:20:04;;;;;;;30.60;18.60;;;;;;;;;;13028751;22;19926;-85
2021/11/24 15:25:05;;;;;;;28.75;18.42;;;;;;;;;;13010874;22;20031;-88
2021/11/24 15:30:07;;;;;;;27.92;17.02;;;;;;;;;;13005962;22;20014;-85
2021/11/24 15:35:08;;;;;;;29.08;17.42;;;;;;;;;;13011997;22;20008;-85
2021/11/24 15:40:09;;;;;;;31.58;19.58;;;;;;;;;;13026690;22;20008;-85
2021/11/24 15:45:10;;;;;;;29.13;17.67;;;;;;;;;;13005903;22;20000;-85
2021/11/24 15:50:11;;;;;;;28.73;17.88;;;;;;;;;;13007778;22;20014;-87
2021/11/24 15:55:12;;;;;;;;;;;;;;;;;;13005052;22;20321;-87
2021/11/24 16:00:14;;;;;;;28.92;18.42;;;;;;;;;;13006823;22;19946;-87
2021/11/24 16:05:15;;;;;;;28.80;17.45;;;;;;;;;;13004788;22;20014;-87
2021/11/24 16:10:16;;;;;;;;;;;;;;;;;;13002872;22;20004;-85
2021/11/24 16:15:17;;;;;;;24.60;15.68;;;;;;;;;;13006364;22;19926;-85
2021/11/24 16:20:17;;;;;;;;;;;;;;;;;;13005540;22;20008;-86
2021/11/24 16:25:19;;;;;;;18.90;12.90;;;;;;;;;;13032494;22;19926;-86
2021/11/24 16:30:20;;;;;;;14.73;9.75;;;;;;;;;;13001165;22;20003;-86
2021/11/24 16:35:21;;;;;;;15.73;10.32;;;;;;;;;;12993435;22;20007;-87
2021/11/24 16:40:22;;;;;;;;;;;;;;;;;;12978335;22;20007;-85
2021/11/24 16:45:23;;;;;;;14.43;8.95;;;;;;;;;;12978151;22;19943;-84
2021/11/24 16:50:24;;;;;;;9.93;5.95;;;;;;;;;;12982504;22;20436;-87
2021/11/24 16:55:29;;;;;;;9.40;6.75;;;;;;;;;;12979951;22;20010;-88
2021/11/24 17:00:30;;;;;;;11.95;7.60;;;;;;;;;;12991233;22;20012;-86
2021/11/24 17:05:31;;;;;;;;;;;;;;;;;;12991719;22;20095;-88
